Milford, Utah Weather observations

Data are for observation ending at time listed.
 Day   Time    Ave.   Ave.  Ave.  Vector   Max.   Stn.    Total    Solar   Ave.  
  of    of     Air    Rel.  Wind   Wind    Wind   Baro.  Precip.   Rad.    Soil  
Year   Day     Temp.  Hum.  Speed  Dir.    Gust   Pres.                    Temp. 
2015   (MST)    F      %     mph   deg.    mph     mb.     in.     W/m2     F   
------------------------------------------------------------------------------
 240   16:40   91.7    12    0.0     0      0.0   852.1    0.00     399    75.0
 240   16:50   91.2    12    0.0     0      0.0   852.0    0.00     372    75.0
 240   17:00   91.2    12    0.0     0      0.0   852.0    0.00     338    75.1
 240   17:10   91.5    12    0.0     0      0.0   851.8    0.00     311    75.2
 240   17:20   91.2    13    0.0     0      0.0   851.7    0.00     291    75.2
 240   17:30   89.5    13    0.0     0      0.0   851.7    0.00     238    75.3
 240   17:40   88.6    13    0.0     0      0.0   851.4    0.00     117    75.3
 240   17:50   88.1    14    0.0     0      0.0   851.2    0.00      31    75.4
 240   18:00   88.3    14    0.0     0      0.0   850.8    0.00      31    75.5
 240   18:10   88.3    14    0.0     0      0.0   850.7    0.00      35    75.6
 240   18:20   87.7    14    0.0     0      0.0   850.5    0.00      22    75.6
 240   18:30   86.6    15    0.0     0      0.0   850.3    0.00      19    75.7
 240   18:40   85.7    16    0.0     0      0.0   850.2    0.00      16    75.8
 240   18:50   84.9    17    0.0     0      0.0   850.1    0.00      11    75.8
 240   19:00   84.5    16    0.0     0      0.0   850.1    0.00       7    75.8
 240   19:10   83.5    17    0.0     0      0.0   850.0    0.00       3    75.9
 240   19:20   82.5    18    0.0     0      0.0   849.9    0.00       0    76.0
 240   19:30   81.6    19    0.0     0      0.0   849.9    0.00       0    76.1
 240   19:40   80.3    20    0.0     0      0.0   849.9    0.00       0    76.1
 240   19:50   77.7    25    0.0     0      0.0   849.9    0.00       0    76.2
 240   20:00   76.2    27    0.0     0      0.0   849.9    0.00       0    76.2
 240   20:10   76.7    25    0.0     0      0.0   849.9    0.00       0    76.3
 240   20:20   75.7    28    0.0     0      0.0   849.9    0.00       0    76.4
 240   20:30   73.1    35    0.0     0      0.0   849.9    0.00       0    76.4
 240   20:40   71.8    37    0.0     0      0.0   850.0    0.00       0    76.5
 240   20:50   72.0    36    0.0     0      0.0   850.0    0.00       0    76.5
 240   21:00   72.6    34    0.0     0      0.0   850.0    0.00       0    76.5
 240   21:10   72.2    35    0.0     0      0.0   850.0    0.00       0    99999.0
 240   21:20   71.9    35    0.0     0      0.0   850.0    0.00       0    76.7
 240   21:30   72.2    35    0.0     0      0.0   850.0    0.00       0    76.7
 240   21:40   72.0    35    0.0     0      0.0   849.9    0.00       0    76.7
 240   21:50   72.1    34    0.0     0      0.0   849.9    0.00       0    76.7
 240   22:00   72.4    33    0.0     0      0.0   849.9    0.00       0    76.7
 240   22:10   71.9    34    0.0     0      0.0   849.9    0.00       0    76.7
 240   22:20   71.1    34    0.0     0      0.0   849.8    0.00       0    76.8
 240   22:30   70.7    36    0.0     0      0.0   849.8    0.00       0    76.8
 240   22:40   69.9    36    0.0     0      0.0   849.8    0.00       0    76.8
 240   22:50   70.0    34    0.0     0      0.0   849.8    0.00       0    76.8
 240   23:00   68.9    37    0.0     0      0.0   849.8    0.00       0    76.8
 240   23:10   67.8    37    0.0     0      0.0   849.7    0.00       0    76.7
 240   23:20   67.4    37    0.0     0      0.0   849.6    0.00       0    76.8
 240   23:30   66.9    40    0.0     0      0.0   849.6    0.00       0    76.8
 240   23:40   65.1    41    0.0     0      0.0   849.5    0.00       0    76.8
 240   23:50   64.1    42    0.0     0      0.0   849.4    0.00       0    76.8
 241    0:00   63.7    41    0.0     0      0.0   849.4    0.00       0    76.8
 241    0:10   63.7    42    0.0     0      0.0   849.3    0.00       0    76.9
 241    0:20   64.1    44    0.0     0      0.0   849.2    0.00       0    76.8
 241    0:30   63.9    47    0.0     0      0.0   849.2    0.00       0    76.8
 241    0:40   63.8    46    0.0     0      0.0   849.2    0.00       0    76.8
 241    0:50   62.9    45    0.0     0      0.0   849.2    0.00       0    76.8
 241    1:00   62.4    47    0.0     0      0.0   849.1    0.00       0    76.8
 241    1:10   62.7    48    0.0     0      0.0   849.0    0.00       0    76.8
 241    1:20   62.7    48    0.0     0      0.0   849.0    0.00       0    76.8
 241    1:30   62.5    50    0.0     0      0.0   849.0    0.00       0    76.8
 241    1:40   62.1    51    0.0     0      0.0   849.0    0.00       0    99999.0
 241    1:50   61.9    52    0.0     0      0.0   849.0    0.00       0    76.7
 241    2:00   61.8    52    0.0     0      0.0   849.0    0.00       0    76.7
 241    2:10   61.6    52    0.0     0      0.0   849.0    0.00       0    76.7
 241    2:20   61.4    52    0.0     0      0.0   849.0    0.00       0    76.6
 241    2:30   60.8    54    0.0     0      0.0   849.0    0.00       0    76.6
 241    2:40   60.5    54    0.0     0      0.0   849.0    0.00       0    76.6
 241    2:50   62.2    49    0.0     0      0.0   849.0    0.00       0    76.6
 241    3:00   62.1    51    0.0     0      0.0   849.1    0.00       0    76.6
 241    3:10   60.3    57    0.0     0      0.0   849.1    0.00       0    76.5
 241    3:20   59.2    59    0.0     0      0.0   849.1    0.00       0    76.5
 241    3:30   58.6    60    0.0     0      0.0   849.1    0.00       0    76.5
 241    3:40   58.0    61    0.0     0      0.0   849.0    0.00       0    76.5
 241    3:50   58.5    61    0.0     0      0.0   849.0    0.00       0    76.5
 241    4:00   59.0    60    0.0     0      0.0   849.0    0.00       0    76.4
 241    4:10   59.0    58    0.0     0      0.0   849.0    0.00       0    76.4
 241    4:20   59.8    56    0.0     0      0.0   848.9    0.00       0    76.4
 241    4:30   59.3    55    0.0     0      0.0   848.9    0.01       0    76.3
 241    4:40   59.0    54    0.0     0      0.0   848.9    0.01       0    76.3
 241    4:50   58.4    54    0.0     0      0.0   848.7    0.01       0    76.3
 241    5:00   57.5    55    0.0     0      0.0   848.6    0.02       0    76.2
 241    5:10   56.2    57    0.0     0      0.0   848.5    0.01       0    76.2
 241    5:20   55.5    60    0.0     0      0.0   848.4    0.01       0    76.2
 241    5:30   55.2    62    0.0     0      0.0   848.4    0.00       0    76.0
 241    5:40   55.1    61    0.0     0      0.0   848.2    0.00       0    76.0
 241    5:50   55.1    62    0.0     0      0.0   848.3    0.00       0    76.0
 241    6:00   54.9    64    0.0     0      0.0   848.4    0.00       6    76.0
 241    6:10   55.0    64    0.0     0      0.0   848.4    0.00       7    75.9
 241    6:20   55.2    64    0.0     0      0.0   848.5    0.00      14    75.8
 241    6:30   56.1    63    0.0     0      0.0   848.7    0.00      24    75.8
 241    6:40   57.0    63    0.0     0      0.0   848.8    0.00      28    75.7
 241    6:50   58.1    62    0.0     0      0.0   849.0    0.00      49    75.6
 241    7:00   60.7    55    0.0     0      0.0   849.1    0.00     120    75.6
 241    7:10   65.3    44    0.0     0      0.0   849.3    0.00     154    75.5
 241    7:20   67.4    41    0.0     0      0.0   849.6    0.00     196    75.4
 241    7:30   68.7    40    0.0     0      0.0   850.0    0.00     224    75.3
 241    7:40   69.3    40    0.0     0      0.0   850.3    0.00     242    75.3
 241    7:50   69.6    41    0.0     0      0.0   850.6    0.00     238    75.2
 241    8:00   69.7    43    0.0     0      0.0   850.8    0.00     254    75.1
 241    8:10   71.5    39    0.0     0      0.0   850.9    0.00     309    75.2
 241    8:20   72.8    37    0.0     0      0.0   851.0    0.00     346    75.1
 241    8:30   74.2    36    0.0     0      0.0   851.2    0.00     388    75.1
 241    8:40   75.5    35    0.0     0      0.0   851.4    0.00     416    75.0
 241    8:50   76.7    35    0.0     0      0.0   851.5    0.00     395    75.0
 241    9:00   78.3    32    0.0     0      0.0   851.6    0.00     394    75.0
 241    9:10   79.9    30    0.0     0      0.0   851.8    0.00     460    74.9
 241    9:20   81.1    27    0.0     0      0.0   852.0    0.00     499    74.9
 241    9:30   81.9    28    0.0     0      0.0   852.2    0.00     560    74.8
 241    9:40   82.2    27    0.0     0      0.0   852.4    0.00     521    74.8
 241    9:50   82.9    27    0.0     0      0.0   852.6    0.00     544    74.8
 241   10:00   83.6    26    0.0     0      0.0   852.6    0.00     506    74.8
 241   10:10   83.9    26    0.0     0      0.0   852.7    0.00     515    74.7
 241   10:20   84.7    25    0.0     0      0.0   852.7    0.00     568    74.6
 241   10:30   85.2    24    0.0     0      0.0   852.7    0.00     604    74.6
 241   10:40   85.7    24    0.0     0      0.0   852.7    0.00     581    74.6
 241   10:50   86.2    24    0.0     0      0.0   852.7    0.00     631    74.6
 241   11:00   87.0    23    0.0     0      0.0   852.7    0.00     677    74.5
 241   11:10   87.4    23    0.0     0      0.0   852.7    0.00     718    74.5
 241   11:20   88.1    22    0.0     0      0.0   852.5    0.00     739    74.5
 241   11:30   89.0    21    0.0     0      0.0   852.4    0.00     750    74.5
 241   11:40   88.9    20    0.0     0      0.0   852.3    0.00     662    74.5
 241   11:50   88.7    20    0.0     0      0.0   852.2    0.00     416    74.4
 241   12:00   89.9    19    0.0     0      0.0   852.1    0.00     743    74.4
 241   12:10   90.0    17    0.0     0      0.0   852.0    0.00     658    74.4
 241   12:20   91.3    18    0.0     0      0.0   851.9    0.00     749    74.5
 241   12:30   90.7    19    0.0     0      0.0   851.8    0.00     710    99999.0
 241   12:40   90.3    19    1.4   173     15.3   851.7    0.00     688    99999.0
 241   12:50   90.9    18    4.0   182     10.4   851.7    0.00     638    99999.0
 241   13:00   91.3    19    5.5   182     15.1   851.7    0.00     645    99999.0
 241   13:10   90.3    19    6.2   178     16.5   851.6    0.00     645    99999.0
 241   13:20   91.0    19    5.8   181     13.9   851.6    0.00     670    99999.0
 241   13:30   91.4    20    5.1   180     14.5   851.6    0.00     677    99999.0
 241   13:40   90.6    19    7.6   176     20.4   851.6    0.00     545    99999.0
 241   13:50   90.7    19    8.4   173     17.2   851.5    0.00     711    99999.0
 241   14:00   91.5    19    7.3   177     15.9   851.4    0.00     722    99999.0
 241   14:10   90.6    20    7.3   177     17.6   851.3    0.00     465    99999.0
 241   14:20   90.4    20    6.7   179     16.6   851.2    0.00     477    99999.0
 241   14:30   90.4    19    5.2   187     15.1   851.0    0.00     311    99999.0
 241   14:40   88.7    20    3.7   191     10.2   850.9    0.00     235    99999.0
 241   14:50   91.5    20    3.1   199      8.0   850.6    0.00     717    99999.0
 241   15:00   91.4    18    6.6   183     22.2   850.5    0.00     531    99999.0
 241   15:10   90.1    19    6.3   180     14.8   850.6    0.00     267    99999.0
 241   15:20   90.7    19    5.7   180     14.8   850.3    0.00     619    99999.0
 241   15:30   91.7    18    5.6   180     16.7   850.1    0.00     583    99999.0
 241   15:40   91.3    18    6.5   188     18.9   850.1    0.00     471    99999.0
 241   15:50   91.3    18    7.3   176     17.5   850.1    0.00     520    99999.0
 241   16:00   91.0    18    5.3   182     13.2   850.0    0.00     443    99999.0
 241   16:10   91.2    17    5.2   188     14.0   849.9    0.00     395    99999.0
 241   16:20   90.7    18    5.8   183     12.5   849.7    0.00     386    99999.0
 241   16:30   90.1    18    5.2   180     13.5   849.5    0.00     278    99999.0

Return to Milford, Utah graphs page.


Western Regional Climate Center,wrcc@dri.edu